createdAt,value
2019-05-21T00:02:00.494Z,37.13
2019-05-21T00:06:05.219Z,38.00
2019-05-21T00:10:10.225Z,35.60
2019-05-21T00:14:14.837Z,35.90
2019-05-21T00:18:19.490Z,31.07
2019-05-21T00:22:24.206Z,31.13
2019-05-21T00:26:28.869Z,35.30
2019-05-21T00:31:10.119Z,53.53
2019-05-21T00:35:53.048Z,68.97
2019-05-21T00:40:33.485Z,67.83
2019-05-21T00:44:41.106Z,54.63
2019-05-21T00:48:45.667Z,61.13
2019-05-21T00:52:50.315Z,50.23
2019-05-21T00:56:54.914Z,36.60
2019-05-21T01:00:59.472Z,37.03
2019-05-21T01:05:04.880Z,43.40
2019-05-21T01:09:09.558Z,44.37
2019-05-21T01:13:14.099Z,55.43
2019-05-21T01:17:18.632Z,50.60
2019-05-21T01:21:23.296Z,73.63
2019-05-21T01:25:27.807Z,86.60
2019-05-21T01:29:32.460Z,97.20
2019-05-21T01:33:37.763Z,95.47
2019-05-21T01:37:42.358Z,93.87
2019-05-21T01:41:46.894Z,100.50
2019-05-21T01:49:57.264Z,93.03
2019-05-21T01:54:01.898Z,88.87
2019-05-21T01:58:07.014Z,79.43
2019-05-21T02:02:11.543Z,94.53
2019-05-21T02:06:16.084Z,90.83
2019-05-21T02:10:20.709Z,92.97
2019-05-21T02:14:25.238Z,87.37
2019-05-21T02:18:29.775Z,92.17
2019-05-21T02:22:34.291Z,96.23
2019-05-21T02:26:38.939Z,91.93
2019-05-21T02:30:43.502Z,90.77
2019-05-21T02:34:47.947Z,86.93
2019-05-21T02:38:52.501Z,97.60
2019-05-21T02:42:57.151Z,91.13
2019-05-21T02:47:01.672Z,103.27
2019-05-21T02:51:06.281Z,87.83
2019-05-21T02:55:11.359Z,88.27
2019-05-21T02:59:16.095Z,92.43
2019-05-21T03:03:22.452Z,92.60
2019-05-21T03:07:27.002Z,94.90
2019-05-21T03:11:31.647Z,106.47
2019-05-21T03:15:36.164Z,83.47
2019-05-21T03:19:40.701Z,82.47
2019-05-21T03:23:45.376Z,94.07
2019-05-21T03:27:50.016Z,104.93
2019-05-21T03:31:55.826Z,115.20
2019-05-21T03:36:00.464Z,98.20
2019-05-21T03:40:06.637Z,86.63
2019-05-21T03:44:11.156Z,86.73
2019-05-21T03:48:15.836Z,99.10
2019-05-21T03:52:20.432Z,116.33
2019-05-21T03:56:24.979Z,95.50
2019-05-21T04:00:29.629Z,140.20
2019-05-21T04:04:34.339Z,108.27
2019-05-21T04:08:38.939Z,136.77
2019-05-21T04:12:45.127Z,92.97
2019-05-21T04:16:54.252Z,105.07
2019-05-21T04:20:58.788Z,108.47
2019-05-21T04:25:03.943Z,117.70
2019-05-21T04:29:08.463Z,103.43
2019-05-21T04:33:13.120Z,101.90
2019-05-21T04:37:17.849Z,117.73
2019-05-21T04:41:22.630Z,117.50
2019-05-21T04:45:27.151Z,127.57
2019-05-21T04:49:31.718Z,114.73
2019-05-21T04:53:36.301Z,115.13
2019-05-21T04:57:40.886Z,138.47
2019-05-21T05:01:45.559Z,150.67
2019-05-21T05:05:50.210Z,155.60
2019-05-21T05:09:54.773Z,120.37
2019-05-21T05:13:59.343Z,109.93
2019-05-21T05:18:03.949Z,110.33
2019-05-21T05:22:08.566Z,88.03
2019-05-21T05:26:13.255Z,76.83
2019-05-21T05:30:18.833Z,73.30
2019-05-21T05:34:23.502Z,71.60
2019-05-21T05:38:28.099Z,63.00
2019-05-21T05:42:32.638Z,60.30
2019-05-21T05:46:37.267Z,59.40
2019-05-21T05:50:43.567Z,59.67
2019-05-21T05:54:48.183Z,70.37
2019-05-21T05:58:52.841Z,58.07
2019-05-21T06:02:57.526Z,56.60
2019-05-21T06:07:02.115Z,67.83
2019-05-21T06:11:06.823Z,58.77
2019-05-21T06:15:11.962Z,64.50
2019-05-21T06:19:16.574Z,61.53
2019-05-21T06:23:21.115Z,59.30
2019-05-21T06:31:22.577Z,57.93
2019-05-21T06:35:27.117Z,64.33
2019-05-21T06:39:31.820Z,55.23
2019-05-21T06:43:36.359Z,55.07
2019-05-21T06:47:40.912Z,45.73
2019-05-21T06:51:45.541Z,42.20
2019-05-21T06:55:50.153Z,49.30
2019-05-21T06:59:54.706Z,47.57
2019-05-21T07:03:59.316Z,49.63
2019-05-21T07:08:03.959Z,45.77
2019-05-21T07:12:21.021Z,50.00
2019-05-21T07:16:25.564Z,50.93
2019-05-21T07:20:30.296Z,45.07
2019-05-21T07:24:34.860Z,50.63
2019-05-21T07:28:39.509Z,58.70
2019-05-21T07:32:44.277Z,52.90
2019-05-21T07:36:49.262Z,62.30
2019-05-21T07:40:53.933Z,90.00
2019-05-21T07:44:58.552Z,86.10
2019-05-21T07:49:03.465Z,64.50
2019-05-21T07:53:08.127Z,78.80
2019-05-21T07:57:12.795Z,82.77
2019-05-21T08:01:17.427Z,77.63
2019-05-21T08:05:22.165Z,67.73
2019-05-21T08:09:26.786Z,69.83
2019-05-21T08:13:31.452Z,85.63
2019-05-21T08:17:36.168Z,94.80
2019-05-21T08:21:40.888Z,101.87
2019-05-21T08:25:46.705Z,102.50
2019-05-21T08:29:51.260Z,88.33
2019-05-21T08:33:55.817Z,71.33
2019-05-21T08:38:00.434Z,78.40
2019-05-21T08:42:05.095Z,68.23
2019-05-21T08:46:09.843Z,85.70
2019-05-21T08:50:14.784Z,91.93
2019-05-21T08:54:20.967Z,81.20
2019-05-21T08:58:25.762Z,89.00
2019-05-21T09:02:30.308Z,87.97
2019-05-21T09:06:34.895Z,82.33
2019-05-21T09:10:41.851Z,58.90
2019-05-21T09:14:46.369Z,64.50
2019-05-21T09:18:50.924Z,67.40
2019-05-21T09:22:55.468Z,69.90
2019-05-21T09:27:00.162Z,64.40
2019-05-21T09:31:04.810Z,65.40
2019-05-21T09:35:10.880Z,60.77
2019-05-21T09:39:15.545Z,70.23
2019-05-21T09:43:20.188Z,64.53
2019-05-21T09:47:24.918Z,70.37
2019-05-21T09:51:29.599Z,71.90
2019-05-21T09:55:34.262Z,76.60
2019-05-21T09:59:40.559Z,65.10
2019-05-21T10:03:47.044Z,67.63
2019-05-21T10:07:51.699Z,69.97
2019-05-21T10:11:56.335Z,71.90
2019-05-21T10:16:01.569Z,74.07
2019-05-21T10:20:06.679Z,79.80
2019-05-21T10:24:11.235Z,73.27
2019-05-21T10:28:15.841Z,83.93
2019-05-21T10:32:20.387Z,90.47
2019-05-21T10:36:24.977Z,89.80
2019-05-21T10:40:29.710Z,91.00
2019-05-21T10:44:34.615Z,84.33
2019-05-21T10:48:39.164Z,85.60
2019-05-21T10:52:43.706Z,95.33
2019-05-21T10:56:48.715Z,94.77
2019-05-21T11:00:55.510Z,98.77
2019-05-21T11:05:01.825Z,102.03
2019-05-21T11:09:09.027Z,100.07
2019-05-21T11:13:13.803Z,97.02
2019-05-21T11:17:18.389Z,104.67
2019-05-21T11:21:22.906Z,96.93
2019-05-21T11:25:27.457Z,87.37
2019-05-21T11:29:41.258Z,83.77
2019-05-21T11:33:46.346Z,102.90
2019-05-21T11:37:50.960Z,102.40
2019-05-21T11:41:55.593Z,91.80
2019-05-21T11:46:02.966Z,76.47
2019-05-21T11:50:08.044Z,87.80
2019-05-21T11:54:12.693Z,86.33
2019-05-21T11:58:17.310Z,78.10
2019-05-21T12:02:22.082Z,71.50
2019-05-21T12:06:26.696Z,67.73
2019-05-21T12:10:31.314Z,63.43
2019-05-21T12:14:35.944Z,77.40
2019-05-21T12:18:40.494Z,72.10
2019-05-21T12:22:45.124Z,64.73
2019-05-21T12:26:49.670Z,67.07
2019-05-21T12:30:54.281Z,72.30
2019-05-21T12:34:58.852Z,65.83
2019-05-21T12:39:13.754Z,54.63
2019-05-21T12:43:10.325Z,51.83
2019-05-21T12:47:14.997Z,50.27
2019-05-21T12:51:19.558Z,49.33
2019-05-21T12:55:24.214Z,45.83
2019-05-21T12:59:28.740Z,49.57
2019-05-21T13:03:33.303Z,49.53
2019-05-21T13:07:37.858Z,58.27
2019-05-21T13:11:42.391Z,65.10
2019-05-21T13:15:46.971Z,75.63
2019-05-21T13:19:51.498Z,65.17
2019-05-21T13:23:56.221Z,75.83
2019-05-21T13:28:00.759Z,58.23
2019-05-21T13:32:05.551Z,63.10
2019-05-21T13:36:10.242Z,59.37
2019-05-21T13:40:18.158Z,65.17
2019-05-21T13:48:25.928Z,59.15
2019-05-21T13:52:30.779Z,60.77
2019-05-21T13:56:35.866Z,56.77
2019-05-21T14:00:42.179Z,57.83
2019-05-21T14:04:46.851Z,57.17
2019-05-21T14:08:51.447Z,59.07
2019-05-21T14:12:56.078Z,64.90
2019-05-21T14:17:00.717Z,57.53
2019-05-21T14:21:05.549Z,54.07
2019-05-21T14:25:10.417Z,65.30
2019-05-21T14:29:15.037Z,68.00
2019-05-21T14:33:19.699Z,62.93
2019-05-21T14:37:24.499Z,56.77
2019-05-21T14:41:29.217Z,58.03
2019-05-21T14:45:34.704Z,58.87
2019-05-21T14:49:39.413Z,55.73
2019-05-21T14:53:43.964Z,52.13
2019-05-21T14:57:48.746Z,53.03
2019-05-21T15:01:53.389Z,56.90
2019-05-21T15:05:58.034Z,48.87
2019-05-21T15:10:02.736Z,49.10
2019-05-21T15:14:07.468Z,49.67
2019-05-21T15:18:19.553Z,47.97
2019-05-21T15:22:18.701Z,54.23
2019-05-21T15:26:23.325Z,50.40
2019-05-21T15:30:29.427Z,54.13
2019-05-21T15:34:34.275Z,52.60
2019-05-21T15:38:49.219Z,52.07
2019-05-21T15:42:45.155Z,53.97
2019-05-21T15:46:50.769Z,51.40
2019-05-21T15:50:56.258Z,54.90
2019-05-21T15:55:00.864Z,57.07
2019-05-21T15:59:05.992Z,53.50
2019-05-21T16:03:10.562Z,50.33
2019-05-21T16:07:15.101Z,46.27
2019-05-21T16:11:28.409Z,46.93
2019-05-21T16:15:25.928Z,48.40
2019-05-21T16:19:30.603Z,52.53
2019-05-21T16:23:35.313Z,48.60
2019-05-21T16:27:40.085Z,56.87
2019-05-21T16:31:44.629Z,52.70
2019-05-21T16:35:49.473Z,53.77
2019-05-21T16:39:54.212Z,54.37
2019-05-21T16:43:58.835Z,61.10
2019-05-21T16:48:03.492Z,58.03
2019-05-21T16:52:08.007Z,51.13
2019-05-21T16:56:12.565Z,59.97
2019-05-21T17:00:18.322Z,62.13
2019-05-21T17:04:22.918Z,54.90
2019-05-21T17:08:27.540Z,57.90
2019-05-21T17:12:32.165Z,63.83
2019-05-21T17:16:36.910Z,63.20
2019-05-21T17:20:41.598Z,61.83
2019-05-21T17:24:46.179Z,65.23
2019-05-21T17:28:50.888Z,65.30
2019-05-21T17:32:55.485Z,71.77
2019-05-21T17:37:00.092Z,65.07
2019-05-21T17:41:04.820Z,61.83
2019-05-21T17:45:09.857Z,65.70
2019-05-21T17:49:14.537Z,62.33
2019-05-21T17:53:19.155Z,66.60
2019-05-21T17:57:24.072Z,60.57
2019-05-21T18:01:28.981Z,62.33
2019-05-21T18:05:33.936Z,61.37
2019-05-21T18:09:39.004Z,58.87
2019-05-21T18:13:44.196Z,59.13
2019-05-21T18:17:49.069Z,59.40
2019-05-21T18:21:54.150Z,59.33
2019-05-21T18:25:58.694Z,59.70
2019-05-21T18:30:04.803Z,60.63
2019-05-21T18:34:09.501Z,52.53
2019-05-21T18:38:14.542Z,58.57
2019-05-21T18:42:22.244Z,49.73
2019-05-21T18:46:25.632Z,57.83
2019-05-21T18:50:36.395Z,54.97
2019-05-21T18:54:36.897Z,54.93
2019-05-21T18:58:41.683Z,64.63
2019-05-21T19:02:46.423Z,63.43
2019-05-21T19:06:51.053Z,52.37
2019-05-21T19:10:55.751Z,55.23
2019-05-21T19:15:00.612Z,68.73
2019-05-21T19:19:05.461Z,58.80
2019-05-21T19:23:10.105Z,64.87
2019-05-21T19:27:17.807Z,57.63
2019-05-21T19:31:22.372Z,52.90
2019-05-21T19:35:27.286Z,51.60
2019-05-21T19:39:32.671Z,46.47
2019-05-21T19:43:37.291Z,40.97
2019-05-21T19:47:41.948Z,42.37
2019-05-21T19:51:46.512Z,41.90
2019-05-21T19:55:51.449Z,39.77
2019-05-21T19:59:56.120Z,34.73
2019-05-21T20:04:00.938Z,38.53
2019-05-21T20:08:06.128Z,41.60
2019-05-21T20:12:11.088Z,35.90
2019-05-21T20:16:16.803Z,34.83
2019-05-21T20:20:23.555Z,40.93
2019-05-21T20:24:29.001Z,39.27
2019-05-21T20:28:33.740Z,48.63
2019-05-21T20:32:40.141Z,41.17
2019-05-21T20:36:45.026Z,39.23
2019-05-21T20:40:49.606Z,42.70
2019-05-21T20:44:54.224Z,36.50
2019-05-21T20:48:59.739Z,41.97
2019-05-21T20:53:05.046Z,43.83
2019-05-21T20:57:11.037Z,42.13
2019-05-21T21:01:15.647Z,42.93
2019-05-21T21:05:21.183Z,47.67
2019-05-21T21:09:25.744Z,50.40
2019-05-21T21:13:30.369Z,53.60
2019-05-21T21:17:35.330Z,52.30
2019-05-21T21:21:40.328Z,47.47
2019-05-21T21:25:45.387Z,54.13
2019-05-21T21:29:49.971Z,48.73
2019-05-21T21:33:54.836Z,52.40
2019-05-21T21:38:01.291Z,54.80
2019-05-21T21:42:07.074Z,50.57
2019-05-21T21:46:11.893Z,57.70
2019-05-21T21:50:17.491Z,63.30
2019-05-21T21:54:22.691Z,57.10
2019-05-21T21:58:27.253Z,49.23
2019-05-21T22:02:34.598Z,56.53
2019-05-21T22:06:41.449Z,49.83
2019-05-21T22:10:46.265Z,51.73
2019-05-21T22:14:56.971Z,57.63
2019-05-21T22:19:01.687Z,57.10
2019-05-21T22:23:06.913Z,57.87
2019-05-21T22:27:11.602Z,60.53
2019-05-21T22:31:16.216Z,67.13
2019-05-21T22:35:21.160Z,66.77
2019-05-21T22:39:27.771Z,74.40
2019-05-21T22:43:32.858Z,72.63
2019-05-21T22:47:37.468Z,58.10
2019-05-21T22:51:42.097Z,85.80
2019-05-21T22:55:46.643Z,80.73
2019-05-21T22:59:51.352Z,73.77
2019-05-21T23:03:56.698Z,73.63
2019-05-21T23:08:01.668Z,74.17
2019-05-21T23:12:07.993Z,79.37
2019-05-21T23:16:12.622Z,84.53
2019-05-21T23:20:18.770Z,81.03
2019-05-21T23:24:23.505Z,69.23
2019-05-21T23:28:29.250Z,76.70
2019-05-21T23:32:34.356Z,75.50
2019-05-21T23:36:40.760Z,68.43
2019-05-21T23:40:46.501Z,61.57
2019-05-21T23:44:51.142Z,60.00
2019-05-21T23:48:55.749Z,65.97
2019-05-21T23:53:00.358Z,55.57
2019-05-21T23:57:05.406Z,69.87
